Girvan, United Kingdom
Current Conditions -  °F | °C
As of 4:20 PM on Monday 26 Jan 2015 (Local Time) from EGPK Reporting Station
Rain Showers Rain Showers  
Wind Chill: 36°   Ceiling: Unl
Heat Index: 45°   Visibility: 6mi
Dew Point: 36°   Wind: 22mph
Humidity: 71%   Direction: 310°NW
Pressure: 30.21"   Gusts: NA
Location:  55.24°N, 4.86°W
Report Text: EGPK 261620Z 31019KT 9999 -SHRA FEW010 SCT030 07/02 Q1023
Loading
Personal Weather Stations






























Interactive Weather Map New forecast layout! Learn more

10-Day Weather Forecast

Advertisements
Track Severe Weather on mobile